createdAt,value
2023-04-17T00:02:01.797Z,4.12
2023-04-17T00:04:54.498Z,3.90
2023-04-17T00:07:46.768Z,3.25
2023-04-17T00:10:38.413Z,4.58
2023-04-17T00:13:29.862Z,4.72
2023-04-17T00:16:21.311Z,3.65
2023-04-17T00:19:12.845Z,3.98
2023-04-17T00:22:04.346Z,3.37
2023-04-17T00:24:55.735Z,4.95
2023-04-17T00:27:47.306Z,3.10
2023-04-17T00:30:38.478Z,3.95
2023-04-17T00:33:30.155Z,4.08
2023-04-17T00:36:21.814Z,4.60
2023-04-17T00:39:13.532Z,4.12
2023-04-17T00:42:05.479Z,3.65
2023-04-17T00:44:57.767Z,4.22
2023-04-17T00:50:31.547Z,3.95
2023-04-17T00:53:23.508Z,3.30
2023-04-17T00:56:14.942Z,3.92
2023-04-17T00:59:07.377Z,3.33
2023-04-17T01:01:58.597Z,4.20
2023-04-17T01:04:50.107Z,4.28
2023-04-17T01:07:43.287Z,3.70
2023-04-17T01:10:34.485Z,3.72
2023-04-17T01:13:26.754Z,4.12
2023-04-17T01:16:18.551Z,4.53
2023-04-17T01:19:12.950Z,3.52
2023-04-17T01:22:04.248Z,4.33
2023-04-17T01:24:55.931Z,5.03
2023-04-17T01:27:48.882Z,3.77
2023-04-17T01:30:40.445Z,4.10
2023-04-17T01:33:32.694Z,4.40
2023-04-17T01:36:24.181Z,4.53
2023-04-17T01:39:17.376Z,3.87
2023-04-17T01:42:08.730Z,4.58
2023-04-17T01:45:00.160Z,3.95
2023-04-17T01:47:51.383Z,4.95
2023-04-17T01:50:42.835Z,4.67
2023-04-17T01:53:35.096Z,4.33
2023-04-17T01:56:27.398Z,4.65
2023-04-17T01:59:19.017Z,4.50
2023-04-17T02:02:11.113Z,4.58
2023-04-17T02:05:02.864Z,4.83
2023-04-17T02:07:54.191Z,3.67
2023-04-17T02:10:45.594Z,4.87
2023-04-17T02:13:37.184Z,5.22
2023-04-17T02:16:28.944Z,4.85
2023-04-17T02:19:24.196Z,4.87
2023-04-17T02:22:16.082Z,4.58
2023-04-17T02:25:08.415Z,4.60
2023-04-17T02:27:59.744Z,3.77
2023-04-17T02:30:51.131Z,3.85
2023-04-17T02:33:42.829Z,4.08
2023-04-17T02:36:34.629Z,4.10
2023-04-17T02:39:27.534Z,4.22
2023-04-17T02:42:19.838Z,4.47
2023-04-17T02:45:12.511Z,3.37
2023-04-17T02:48:04.397Z,5.87
2023-04-17T02:50:56.090Z,4.87
2023-04-17T02:53:49.221Z,5.30
2023-04-17T02:56:42.228Z,5.03
2023-04-17T02:59:33.626Z,5.58
2023-04-17T03:02:25.105Z,4.67
2023-04-17T03:05:16.933Z,5.25
2023-04-17T03:08:09.473Z,4.87
2023-04-17T03:11:05.589Z,6.03
2023-04-17T03:13:56.895Z,5.67
2023-04-17T03:16:48.517Z,4.67
2023-04-17T03:19:40.115Z,6.62
2023-04-17T03:22:31.898Z,5.72
2023-04-17T03:25:23.805Z,5.42
2023-04-17T03:28:18.724Z,5.17
2023-04-17T03:31:10.099Z,5.60
2023-04-17T03:34:01.452Z,6.78
2023-04-17T03:36:55.764Z,6.30
2023-04-17T03:39:47.399Z,6.10
2023-04-17T03:42:38.758Z,6.40
2023-04-17T03:45:30.105Z,6.62
2023-04-17T03:48:21.988Z,6.47
2023-04-17T03:51:14.725Z,6.08
2023-04-17T03:54:07.410Z,5.78
2023-04-17T03:56:59.050Z,6.22
2023-04-17T03:59:50.343Z,5.87
2023-04-17T04:02:42.886Z,6.35
2023-04-17T04:05:34.502Z,6.37
2023-04-17T04:08:26.611Z,7.17
2023-04-17T04:11:18.612Z,6.80
2023-04-17T04:14:09.933Z,6.90
2023-04-17T04:17:01.776Z,6.60
2023-04-17T04:19:57.561Z,6.53
2023-04-17T04:22:50.041Z,6.75
2023-04-17T04:25:43.650Z,5.75
2023-04-17T04:28:38.406Z,6.33
2023-04-17T04:31:31.978Z,5.87
2023-04-17T04:34:26.122Z,5.55
2023-04-17T04:37:17.872Z,5.70
2023-04-17T04:40:11.894Z,5.85
2023-04-17T04:43:05.960Z,4.90
2023-04-17T04:45:59.098Z,6.05
2023-04-17T04:48:52.453Z,5.95
2023-04-17T04:51:43.710Z,6.40
2023-04-17T04:54:35.074Z,6.62
2023-04-17T04:57:28.601Z,5.75
2023-04-17T05:00:22.177Z,6.15
2023-04-17T05:03:15.369Z,5.97
2023-04-17T05:06:07.951Z,5.72
2023-04-17T05:09:01.462Z,5.20
2023-04-17T05:11:54.086Z,5.45
2023-04-17T05:14:46.405Z,5.30
2023-04-17T05:17:39.187Z,5.85
2023-04-17T05:20:32.116Z,5.85
2023-04-17T05:23:23.447Z,5.62
2023-04-17T05:26:15.336Z,6.00
2023-04-17T05:29:06.845Z,6.03
2023-04-17T05:31:58.338Z,5.85
2023-04-17T05:34:51.494Z,6.00
2023-04-17T05:37:44.606Z,5.87
2023-04-17T05:40:36.027Z,5.97
2023-04-17T05:43:27.640Z,5.83
2023-04-17T05:46:20.853Z,6.22
2023-04-17T05:49:12.568Z,5.95
2023-04-17T05:52:04.368Z,5.97
2023-04-17T05:54:57.677Z,6.22
2023-04-17T05:57:49.135Z,6.17
2023-04-17T06:00:40.514Z,5.90
2023-04-17T06:03:32.423Z,5.92
2023-04-17T06:06:25.866Z,5.78
2023-04-17T06:09:17.694Z,5.37
2023-04-17T06:12:11.995Z,5.80
2023-04-17T06:15:09.337Z,6.40
2023-04-17T06:18:01.650Z,6.00
2023-04-17T06:20:53.307Z,6.40
2023-04-17T06:23:47.968Z,6.10
2023-04-17T06:26:40.604Z,6.08
2023-04-17T06:29:32.341Z,5.75
2023-04-17T06:32:23.814Z,6.20
2023-04-17T06:35:16.463Z,5.90
2023-04-17T06:38:11.246Z,6.40
2023-04-17T06:41:02.656Z,5.58
2023-04-17T06:43:54.325Z,6.58
2023-04-17T06:46:45.889Z,5.97
2023-04-17T06:49:39.141Z,6.47
2023-04-17T06:52:31.843Z,5.55
2023-04-17T06:55:23.440Z,6.12
2023-04-17T06:58:15.200Z,5.67
2023-04-17T07:01:07.814Z,5.47
2023-04-17T07:03:59.120Z,5.53
2023-04-17T07:06:50.453Z,6.10
2023-04-17T07:09:43.254Z,6.22
2023-04-17T07:12:35.067Z,6.80
2023-04-17T07:15:26.929Z,5.92
2023-04-17T07:18:18.576Z,6.60
2023-04-17T07:21:10.079Z,6.40
2023-04-17T07:24:01.544Z,6.25
2023-04-17T07:26:53.032Z,5.53
2023-04-17T07:29:46.588Z,6.15
2023-04-17T07:35:21.639Z,5.58
2023-04-17T07:38:12.990Z,5.42
2023-04-17T07:41:04.642Z,5.75
2023-04-17T07:43:58.431Z,5.83
2023-04-17T07:46:49.347Z,5.90
2023-04-17T07:49:40.898Z,6.10
2023-04-17T07:52:32.829Z,5.90
2023-04-17T07:55:24.473Z,6.30
2023-04-17T07:58:16.608Z,6.42
2023-04-17T08:03:49.484Z,5.90
2023-04-17T08:06:41.274Z,6.15
2023-04-17T08:09:32.875Z,5.62
2023-04-17T08:12:24.070Z,5.55
2023-04-17T08:15:15.895Z,5.47
2023-04-17T08:18:08.371Z,5.80
2023-04-17T08:20:59.992Z,6.00
2023-04-17T08:23:51.661Z,5.30
2023-04-17T08:26:43.432Z,5.15
2023-04-17T08:29:35.196Z,5.80
2023-04-17T08:32:27.042Z,5.80
2023-04-17T08:35:19.264Z,5.58
2023-04-17T08:38:12.954Z,5.78
2023-04-17T08:43:49.999Z,5.55
2023-04-17T08:46:41.662Z,5.80
2023-04-17T08:49:35.918Z,5.55
2023-04-17T08:52:27.202Z,5.67
2023-04-17T08:58:04.451Z,5.80
2023-04-17T09:00:56.277Z,5.70
2023-04-17T09:03:49.856Z,6.17
2023-04-17T09:09:47.021Z,6.33
2023-04-17T09:12:40.713Z,5.17
2023-04-17T09:15:33.814Z,5.80
2023-04-17T09:18:31.423Z,5.97
2023-04-17T09:21:24.622Z,5.70
2023-04-17T09:24:16.430Z,6.08
2023-04-17T09:27:25.160Z,5.58
2023-04-17T09:30:17.845Z,5.47
2023-04-17T09:33:10.524Z,5.42
2023-04-17T09:36:24.360Z,4.67
2023-04-17T09:39:24.750Z,5.03
2023-04-17T09:42:16.298Z,5.50
2023-04-17T09:45:22.630Z,5.15
2023-04-17T09:48:15.436Z,5.55
2023-04-17T09:51:08.033Z,5.53
2023-04-17T09:54:01.149Z,4.70
2023-04-17T09:56:54.840Z,5.20
2023-04-17T09:59:49.204Z,5.17
2023-04-17T10:02:43.225Z,4.85
2023-04-17T10:05:35.017Z,5.42
2023-04-17T10:08:27.285Z,5.37
2023-04-17T10:11:19.116Z,4.95
2023-04-17T10:14:16.190Z,5.60
2023-04-17T10:17:26.329Z,5.00
2023-04-17T10:20:39.170Z,5.60
2023-04-17T10:23:35.581Z,5.12
2023-04-17T10:26:51.856Z,4.42
2023-04-17T10:29:55.835Z,4.92
2023-04-17T10:32:50.202Z,4.95
2023-04-17T10:35:42.052Z,5.03
2023-04-17T10:38:37.758Z,5.50
2023-04-17T10:41:30.828Z,5.40
2023-04-17T10:44:22.571Z,4.90
2023-04-17T10:47:15.016Z,5.20
2023-04-17T10:50:10.309Z,3.62
2023-04-17T10:53:02.441Z,4.62
2023-04-17T10:55:56.994Z,4.80
2023-04-17T10:59:04.690Z,5.10
2023-04-17T11:02:03.145Z,4.92
2023-04-17T11:05:04.823Z,4.62
2023-04-17T11:07:58.611Z,4.67
2023-04-17T11:10:54.946Z,4.37
2023-04-17T11:13:49.286Z,4.03
2023-04-17T11:16:44.442Z,4.35
2023-04-17T11:19:38.206Z,4.47
2023-04-17T11:22:32.369Z,3.98
2023-04-17T11:25:27.563Z,4.60
2023-04-17T11:28:22.508Z,4.35
2023-04-17T11:31:21.628Z,4.10
2023-04-17T11:34:22.958Z,3.40
2023-04-17T11:37:17.473Z,3.50
2023-04-17T11:40:13.380Z,4.40
2023-04-17T11:43:14.994Z,4.45
2023-04-17T11:46:11.038Z,3.87
2023-04-17T11:49:10.900Z,4.25
2023-04-17T11:52:06.532Z,3.98
2023-04-17T11:55:05.304Z,3.85
2023-04-17T11:58:05.149Z,4.12
2023-04-17T12:01:11.496Z,4.40
2023-04-17T12:06:47.968Z,4.67
2023-04-17T12:09:39.216Z,3.47
2023-04-17T12:12:31.316Z,4.05
2023-04-17T12:15:22.672Z,3.52
2023-04-17T12:18:14.441Z,3.70
2023-04-17T12:21:06.782Z,3.77
2023-04-17T12:23:58.567Z,4.17
2023-04-17T12:26:52.604Z,3.75
2023-04-17T12:29:44.935Z,3.80
2023-04-17T12:32:40.327Z,3.50
2023-04-17T12:35:32.145Z,4.25
2023-04-17T12:38:24.223Z,3.60
2023-04-17T12:41:16.116Z,3.67
2023-04-17T12:44:07.952Z,3.45
2023-04-17T12:46:59.263Z,3.83
2023-04-17T12:49:50.751Z,3.55
2023-04-17T12:52:42.592Z,3.37
2023-04-17T12:55:34.173Z,3.17
2023-04-17T12:58:25.840Z,3.20
2023-04-17T13:01:17.445Z,3.70
2023-04-17T13:04:09.741Z,3.75
2023-04-17T13:07:03.161Z,3.58
2023-04-17T13:09:54.469Z,3.58
2023-04-17T13:15:26.415Z,3.70
2023-04-17T13:18:18.270Z,3.22
2023-04-17T13:21:09.936Z,3.17
2023-04-17T13:24:01.115Z,2.90
2023-04-17T13:26:52.711Z,3.40
2023-04-17T13:29:44.378Z,3.72
2023-04-17T13:32:36.445Z,3.37
2023-04-17T13:35:29.591Z,2.87
2023-04-17T13:38:24.083Z,3.20
2023-04-17T13:41:15.876Z,2.92
2023-04-17T13:44:07.634Z,3.30
2023-04-17T13:46:59.377Z,2.55
2023-04-17T13:49:51.319Z,2.87
2023-04-17T13:52:42.944Z,2.70
2023-04-17T13:55:34.976Z,2.42
2023-04-17T13:58:26.776Z,2.62
2023-04-17T14:01:18.541Z,2.22
2023-04-17T14:04:10.031Z,2.20
2023-04-17T14:07:02.002Z,2.62
2023-04-17T14:09:54.241Z,2.62
2023-04-17T14:12:45.905Z,2.75
2023-04-17T14:15:37.487Z,2.87
2023-04-17T14:18:29.503Z,2.75
2023-04-17T14:21:22.960Z,3.33
2023-04-17T14:26:55.215Z,3.00
2023-04-17T14:29:46.811Z,2.95
2023-04-17T14:32:39.900Z,2.72
2023-04-17T14:38:19.530Z,3.02
2023-04-17T14:41:11.250Z,2.92
2023-04-17T14:44:03.189Z,3.20
2023-04-17T14:46:57.133Z,2.80
2023-04-17T14:52:28.906Z,2.90
2023-04-17T14:55:20.800Z,2.50
2023-04-17T14:58:13.185Z,1.87
2023-04-17T15:01:05.567Z,2.17
2023-04-17T15:04:02.444Z,1.85
2023-04-17T15:09:44.653Z,2.60
2023-04-17T15:12:36.190Z,1.95
2023-04-17T15:15:31.147Z,2.40
2023-04-17T15:18:31.226Z,2.20
2023-04-17T15:21:22.917Z,2.05
2023-04-17T15:24:14.713Z,2.10
2023-04-17T15:27:07.304Z,1.40
2023-04-17T15:29:58.931Z,1.72
2023-04-17T15:32:50.449Z,1.72
2023-04-17T15:35:42.039Z,1.55
2023-04-17T15:38:33.815Z,1.70
2023-04-17T15:41:27.358Z,1.32
2023-04-17T15:44:19.287Z,1.30
2023-04-17T15:47:11.276Z,1.45
2023-04-17T15:50:03.240Z,1.57
2023-04-17T15:52:57.278Z,1.40
2023-04-17T15:55:51.867Z,1.55
2023-04-17T15:58:43.573Z,1.40
2023-04-17T16:01:36.890Z,1.30
2023-04-17T16:04:29.277Z,1.15
2023-04-17T16:07:21.031Z,1.20
2023-04-17T16:10:14.859Z,1.30
2023-04-17T16:13:06.902Z,1.80
2023-04-17T16:16:00.885Z,1.50
2023-04-17T16:18:52.398Z,1.57
2023-04-17T16:21:45.325Z,1.25
2023-04-17T16:24:37.868Z,1.25
2023-04-17T16:27:29.843Z,1.12
2023-04-17T16:30:27.466Z,1.15
2023-04-17T16:33:21.398Z,1.40
2023-04-17T16:36:13.936Z,1.22
2023-04-17T16:39:08.817Z,1.40
2023-04-17T16:42:01.611Z,1.20
2023-04-17T16:44:54.860Z,1.05
2023-04-17T16:47:46.550Z,1.40
2023-04-17T16:50:41.024Z,1.10
2023-04-17T16:53:33.274Z,1.07
2023-04-17T16:56:25.360Z,1.37
2023-04-17T16:59:16.846Z,1.27
2023-04-17T17:02:08.803Z,2.40
2023-04-17T17:05:02.137Z,1.37
2023-04-17T17:07:54.848Z,1.60
2023-04-17T17:10:46.518Z,1.40
2023-04-17T17:13:38.302Z,1.05
2023-04-17T17:19:10.833Z,1.25
2023-04-17T17:22:04.507Z,1.77
2023-04-17T17:24:58.850Z,1.42
2023-04-17T17:27:51.904Z,1.60
2023-04-17T17:33:22.844Z,1.80
2023-04-17T17:36:14.923Z,1.45
2023-04-17T17:39:06.545Z,1.15
2023-04-17T17:41:58.314Z,1.40
2023-04-17T17:44:49.971Z,1.57
2023-04-17T17:47:41.489Z,1.20
2023-04-17T17:50:33.688Z,1.60
2023-04-17T17:53:27.163Z,1.30
2023-04-17T17:56:20.383Z,1.20
2023-04-17T17:59:12.077Z,1.50
2023-04-17T18:02:05.201Z,1.40
2023-04-17T18:04:57.515Z,1.30
2023-04-17T18:07:49.482Z,1.10
2023-04-17T18:10:40.688Z,1.47
2023-04-17T18:13:51.837Z,1.10
2023-04-17T18:16:44.153Z,1.82
2023-04-17T18:19:40.666Z,2.22
2023-04-17T18:25:18.161Z,2.70
2023-04-17T18:28:09.571Z,2.47
2023-04-17T18:31:00.997Z,2.70
2023-04-17T18:33:53.225Z,3.30
2023-04-17T18:36:50.057Z,3.15
2023-04-17T18:39:41.324Z,3.62
2023-04-17T18:42:32.864Z,2.83
2023-04-17T18:45:24.587Z,3.12
2023-04-17T18:50:55.570Z,3.62
2023-04-17T18:53:50.384Z,3.00
2023-04-17T18:59:26.475Z,2.75
2023-04-17T19:02:18.539Z,3.58
2023-04-17T19:05:17.069Z,2.65
2023-04-17T19:08:11.340Z,3.62
2023-04-17T19:11:09.786Z,3.27
2023-04-17T19:14:03.703Z,3.20
2023-04-17T19:19:36.708Z,3.15
2023-04-17T19:25:08.601Z,3.02
2023-04-17T19:28:01.456Z,2.80
2023-04-17T19:33:32.603Z,3.02
2023-04-17T19:36:23.923Z,3.25
2023-04-17T19:39:18.652Z,2.30
2023-04-17T19:42:10.103Z,2.80
2023-04-17T19:47:42.335Z,3.75
2023-04-17T19:53:12.804Z,2.10
2023-04-17T19:58:43.958Z,3.12
2023-04-17T20:04:20.438Z,2.77
2023-04-17T20:07:12.053Z,2.75
2023-04-17T20:10:03.912Z,3.35
2023-04-17T20:15:34.727Z,3.52
2023-04-17T20:18:26.020Z,3.00
2023-04-17T20:21:18.711Z,3.55
2023-04-17T20:24:10.914Z,2.45
2023-04-17T20:29:43.563Z,2.83
2023-04-17T20:35:17.926Z,2.87
2023-04-17T20:40:58.776Z,2.90
2023-04-17T20:43:59.234Z,2.25
2023-04-17T20:49:40.146Z,2.77
2023-04-17T20:52:33.400Z,2.80
2023-04-17T20:55:24.611Z,2.37
2023-04-17T21:01:01.883Z,2.50
2023-04-17T21:06:32.842Z,2.72
2023-04-17T21:09:24.900Z,2.72
2023-04-17T21:14:56.915Z,2.98
2023-04-17T21:17:48.764Z,3.10
2023-04-17T21:20:42.140Z,2.27
2023-04-17T21:23:33.668Z,2.10
2023-04-17T21:26:24.953Z,2.42
2023-04-17T21:29:16.740Z,2.15
2023-04-17T21:32:08.592Z,2.50
2023-04-17T21:34:59.860Z,2.58
2023-04-17T21:37:51.139Z,3.00
2023-04-17T21:43:20.763Z,2.42
2023-04-17T21:48:53.514Z,3.00
2023-04-17T21:54:24.344Z,3.02
2023-04-17T21:59:55.926Z,3.40
2023-04-17T22:05:26.909Z,3.00
2023-04-17T22:08:18.319Z,3.50
2023-04-17T22:13:48.149Z,3.50
2023-04-17T22:16:39.739Z,3.47
2023-04-17T22:22:11.784Z,3.37
2023-04-17T22:25:03.064Z,3.60
2023-04-17T22:30:35.917Z,3.47
2023-04-17T22:33:28.126Z,3.50
2023-04-17T22:36:19.867Z,3.10
2023-04-17T22:39:12.967Z,3.40
2023-04-17T22:44:43.394Z,4.00
2023-04-17T22:47:34.641Z,3.30
2023-04-17T22:50:26.251Z,3.20
2023-04-17T22:53:17.909Z,3.20
2023-04-17T22:58:47.818Z,2.87
2023-04-17T23:04:20.606Z,3.08
2023-04-17T23:09:55.316Z,3.00
2023-04-17T23:12:46.458Z,3.00
2023-04-17T23:18:21.624Z,3.00
2023-04-17T23:23:52.409Z,3.20
2023-04-17T23:29:21.949Z,3.67
2023-04-17T23:32:13.567Z,2.98
2023-04-17T23:35:04.880Z,3.27
2023-04-17T23:37:58.758Z,3.02
2023-04-17T23:43:29.673Z,2.47
2023-04-17T23:46:21.306Z,2.40
2023-04-17T23:49:12.940Z,2.60
2023-04-17T23:52:04.296Z,2.95
2023-04-17T23:54:55.544Z,4.53
2023-04-17T23:57:47.067Z,4.00
